Have a Safe July 4th! 

Flight Track Log - Related Links

Times and Time Zones

All times are in EDT time to prevent confusion due to time zone crossing. See the SWA706 flight status page for this flight to view local times or setup timezone preferences in your user account.

Time Position Orientation Groundspeed Altitude Reporting Facility
EDT Latitude Longitude Course Direction KTS MPH feet Rate Location/Type
Fri 10:17:28 AM 40.8333 -73.8833 287° West 205 236 2,800  Level New York TRACON
Fri 10:19:52 AM 40.8778 -74.0781 287° West 260 299 10,300 2,837 Climbing New York Center
Fri 10:20:51 AM 40.8500 -74.1728 249° West 288 331 12,400 2,600 Climbing New York Center
Fri 10:21:52 AM 40.8114 -74.2886 246° West 337 388 15,500 2,262 Climbing New York Center
Fri 10:22:53 AM 40.7700 -74.4100 246° West 367 422 17,000 750 Climbing New York Center
Fri 10:23:52 AM 40.7289 -74.5281 245° Southwest 367 422 17,000 1,160 Level New York Center
Fri 10:24:52 AM 40.6828 -74.6653 246° West 372 428 19,300 2,400 Climbing New York Center
Fri 10:25:52 AM 40.6389 -74.7939 246° West 377 434 21,800 2,500 Climbing New York Center
Fri 10:26:52 AM 40.5947 -74.9253 246° West 382 440 24,300 2,250 Climbing New York Center
Fri 10:27:52 AM 40.5419 -75.0586 243° Southwest 403 464 26,300 1,884 Climbing New York Center
Fri 10:28:53 AM 40.4692 -75.1742 230° Southwest 409 471 28,100 2,050 Climbing New York Center
Fri 10:29:52 AM 40.3914 -75.3000 231° Southwest 430 495 30,400 1,750 Climbing New York Center
Fri 10:30:53 AM 40.3136 -75.4200 230° Southwest 440 506 31,600 1,311 Climbing New York Center
Fri 10:31:51 AM 40.2358 -75.5453 231° Southwest 445 512 33,000 1,513 Climbing New York Center
Fri 10:32:52 AM 40.1678 -75.6792 236° Southwest 445 512 34,600 927 Climbing New York Center
Fri 10:33:54 AM 40.0972 -75.8208 237° Southwest 450 518 34,900 202 Climbing New York Center
Fri 10:34:51 AM 40.0350 -75.9547 239° Southwest 450 518 35,000 500 Climbing New York Center
Fri 10:35:54 AM 39.9708 -76.0881 238° Southwest 439 505 35,900 1,000 Climbing New York Center
Fri 10:36:51 AM 39.9042 -76.2236 237° Southwest 439 505 37,000 1,068 Climbing New York Center
Fri 10:37:52 AM 39.8272 -76.3528 232° Southwest 445 512 38,000 1,067 Climbing New York Center
Fri 10:39:06 AM 39.7325 -76.4875 228° Southwest 455 524 39,400 889 Climbing Washington Center
Fri 10:40:07 AM 39.6481 -76.6128 229° Southwest 453 521 40,000 288 Climbing Washington Center
Fri 10:41:11 AM 39.5658 -76.7356 229° Southwest 452 520 40,000  Level Washington Center
Fri 10:42:12 AM 39.4831 -76.8583 229° Southwest 453 521 40,000  Level Washington Center
Fri 10:43:15 AM 39.3844 -77.0036 229° Southwest 451 519 40,000  Level Washington Center
Fri 10:44:16 AM 39.3028 -77.1256 229° Southwest 450 518 40,000  Level Washington Center
Fri 10:45:20 AM 39.2208 -77.2458 229° Southwest 448 516 40,000  Level Washington Center
Fri 10:46:22 AM 39.1386 -77.3636 228° Southwest 445 512 40,000  Level Washington Center
Fri 10:47:23 AM 39.0569 -77.4822 228° Southwest 444 511 40,000  Level Washington Center
Fri 10:48:26 AM 38.9722 -77.6022 228° Southwest 438 504 40,000  Level Washington Center
Fri 10:49:26 AM 38.8747 -77.7414 228° Southwest 438 504 40,000  Level Washington Center
Fri 10:50:30 AM 38.8011 -77.8481 228° Southwest 448 516 40,000  Level Washington Center
Fri 10:51:34 AM 38.7022 -77.9881 228° Southwest 443 510 40,000  Level Washington Center
Fri 10:52:34 AM 38.6206 -78.1047 228° Southwest 443 510 40,000  Level Washington Center
Fri 10:53:35 AM 38.5381 -78.2203 228° Southwest 443 510 40,000  Level Washington Center
Fri 10:54:40 AM 38.4564 -78.3353 228° Southwest 441 507 40,000  Level Washington Center
Fri 10:55:40 AM 38.3731 -78.4528 228° Southwest 442 509 40,000  Level Washington Center
Fri 10:56:44 AM 38.2894 -78.5686 227° Southwest 444 511 40,000  Level Washington Center
Fri 10:57:45 AM 38.1994 -78.6956 228° Southwest 446 513 40,000  Level Washington Center
Fri 10:58:48 AM 38.1158 -78.8122 228° Southwest 447 514 40,000  Level Washington Center
Fri 10:59:49 AM 38.0150 -78.9508 227° Southwest 447 514 40,000  Level Washington Center
Fri 11:00:53 AM 37.9306 -79.0667 227° Southwest 447 514 40,000  Level Washington Center
Fri 11:01:53 AM 37.8467 -79.1822 227° Southwest 447 514 40,000  Level Washington Center
Fri 11:02:58 AM 37.7642 -79.2975 228° Southwest 446 513 40,000  Level Washington Center
Fri 11:03:59 AM 37.6700 -79.4278 228° Southwest 445 512 40,000  Level Washington Center
Fri 11:05:00 AM 37.5856 -79.5442 228° Southwest 449 517 40,000  Level Washington Center
Fri 11:06:04 AM 37.5017 -79.6583 227° Southwest 447 514 40,000  Level Washington Center
Fri 11:07:04 AM 37.4189 -79.7744 228° Southwest 452 520 40,000  Level Washington Center
Fri 11:08:09 AM 37.3347 -79.8878 227° Southwest 451 519 40,000  Level Washington Center
Fri 11:09:10 AM 37.2333 -80.0244 227° Southwest 448 516 40,000  Level Washington Center
Fri 11:10:08 AM 37.1475 -80.1408 227° Southwest 456 525 40,000  Level Atlanta Center
Fri 11:11:08 AM 37.0633 -80.2542 227° Southwest 456 525 40,000  Level Atlanta Center
Fri 11:12:08 AM 36.9772 -80.3675 226° Southwest 456 525 40,000  Level Atlanta Center
Fri 11:13:08 AM 36.8911 -80.4831 227° Southwest 456 525 40,000  Level Atlanta Center
Fri 11:14:08 AM 36.8047 -80.5986 227° Southwest 456 525 40,000  Level Atlanta Center
Fri 11:15:08 AM 36.7303 -80.7000 228° Southwest 456 525 40,000  Level Atlanta Center
Fri 11:16:08 AM 36.6436 -80.8175 227° Southwest 451 519 40,000  Level Atlanta Center
Fri 11:17:08 AM 36.5569 -80.9297 226° Southwest 456 525 40,000  Level Atlanta Center
Fri 11:18:08 AM 36.4703 -81.0467 227° Southwest 461 531 40,000  Level Atlanta Center
Fri 11:19:08 AM 36.3792 -81.1661 227° Southwest 461 531 40,000  Level Atlanta Center
Fri 11:20:08 AM 36.2942 -81.2797 227° Southwest 461 531 40,000  Level Atlanta Center
Fri 11:21:08 AM 36.2050 -81.3936 226° Southwest 461 531 40,000  Level Atlanta Center
Fri 11:22:08 AM 36.1197 -81.5069 227° Southwest 461 531 40,000 -350 Level Atlanta Center
Fri 11:23:08 AM 36.0303 -81.6225 226° Southwest 461 531 39,300 -800 Descending Atlanta Center
Fri 11:24:08 AM 35.9428 -81.7356 226° Southwest 461 531 38,400 -650 Descending Atlanta Center
Fri 11:25:08 AM 35.8531 -81.8533 227° Southwest 461 531 38,000 -200 Descending Atlanta Center
Fri 11:26:08 AM 35.7633 -81.9658 226° Southwest 461 531 38,000 -150 Level Atlanta Center
Fri 11:27:08 AM 35.6817 -82.0700 226° Southwest 467 537 37,700 -750 Descending Atlanta Center
Fri 11:28:08 AM 35.5753 -82.2056 226° Southwest 467 537 36,500 -850 Descending Atlanta Center
Fri 11:29:08 AM 35.4850 -82.3222 226° Southwest 467 537 36,000 -350 Descending Atlanta Center
Fri 11:30:08 AM 35.3947 -82.4336 225° Southwest 462 532 35,800 -500 Descending Atlanta Center
Fri 11:31:08 AM 35.3022 -82.5450 225° Southwest 462 532 35,000 -400 Descending Atlanta Center
Fri 11:32:08 AM 35.2056 -82.6458 220° Southwest 462 532 35,000  Level Atlanta Center
Fri 11:33:08 AM 35.1086 -82.7542 222° Southwest 462 532 35,000 -300 Level Atlanta Center
Fri 11:34:08 AM 35.0117 -82.8594 222° Southwest 468 539 34,400 -500 Descending Atlanta Center
Fri 11:35:08 AM 34.9206 -82.9544 221° Southwest 473 544 34,000 -700 Descending Atlanta Center
Fri 11:36:08 AM 34.8172 -83.0647 221° Southwest 473 544 33,000 -750 Descending Atlanta Center
Fri 11:37:08 AM 34.7200 -83.1694 222° Southwest 473 544 32,500 -1,050 Descending Atlanta Center
Fri 11:38:08 AM 34.6247 -83.2739 222° Southwest 473 544 30,900 -2,400 Descending Atlanta Center
Fri 11:39:08 AM 34.5292 -83.3783 222° Southwest 468 539 27,700 -3,000 Descending Atlanta Center
Fri 11:40:08 AM 34.4336 -83.4772 220° Southwest 463 533 24,900 -2,750 Descending Atlanta Center
Fri 11:41:08 AM 34.3444 -83.5708 221° Southwest 453 521 22,200 -2,650 Descending Atlanta Center
Fri 11:42:08 AM 34.2569 -83.6669 222° Southwest 435 501 19,600 -2,750 Descending Atlanta Center
Fri 11:43:08 AM 34.1717 -83.7550 221° Southwest 423 487 16,700 -2,700 Descending Atlanta Center
Fri 11:44:08 AM 34.0883 -83.8406 220° Southwest 412 474 14,200 -1,875 Descending Atlanta Center
Fri 11:44:44 AM 34.0500 -83.9000 232° Southwest 383 441 13,700 -688 Descending Atlanta TRACON
Fri 11:45:44 AM 33.9667 -84.0000 225° Southwest 366 421 13,100 -650 Descending Atlanta TRACON
Fri 11:46:44 AM 33.9000 -84.0833 226° Southwest 382 440 12,400 -550 Descending Atlanta TRACON
Fri 11:47:44 AM 33.8167 -84.1667 220° Southwest 379 436 12,000 -200 Descending Atlanta TRACON
Fri 11:48:44 AM 33.7667 -84.2500 234° Southwest 304 350 12,000  Level Atlanta TRACON
Fri 11:49:38 AM 33.7333 -84.3167 239° Southwest 264 304 12,000 -550 Level Atlanta TRACON
Fri 11:50:44 AM 33.7333 -84.4167 270° West 259 298 10,900 -1,190 Descending Atlanta TRACON
Fri 11:51:44 AM 33.7333 -84.5000 270° West 245 282 9,500 -1,450 Descending Atlanta TRACON
Fri 11:52:44 AM 33.7333 -84.5833 270° West 229 264 8,000 -1,500 Descending Atlanta TRACON
Fri 11:54:44 AM 33.6833 -84.6167 270° West 190 219 5,000 -1,533 Descending Atlanta TRACON
Fri 11:55:44 AM 33.6500 -84.5667 129° Southeast 174 200 3,400 -1,350 Descending Atlanta TRACON
Fri 11:56:44 AM 33.6500 -84.5167 90° East 153 176 2,300 -950 Descending Atlanta TRACON
Fri 11:57:44 AM 33.6500 -84.4667 90° East 146 168 1,500 -800 Descending Atlanta TRACON
Fri 11:59:00 AM 33.6333 -84.4167 103° East  Level FlightAware Approximate

Login

Don't have an account? Register now (free) for customized features, flight alerts, and more!